sensor_id;sensor_type;location;lat;lon;timestamp;pressure;altitude;pressure_sealevel;temperature;humidity
75136;BME280;63707;52.212;9.540;2023-05-07T00:02:10;100413.94;;;8.98;100.00
75136;BME280;63707;52.212;9.540;2023-05-07T00:04:35;100415.34;;;8.94;100.00
75136;BME280;63707;52.212;9.540;2023-05-07T00:07:02;100412.34;;;8.89;100.00
75136;BME280;63707;52.212;9.540;2023-05-07T00:09:28;100417.59;;;8.90;100.00
75136;BME280;63707;52.212;9.540;2023-05-07T00:11:54;100413.00;;;8.91;100.00
75136;BME280;63707;52.212;9.540;2023-05-07T00:14:20;100410.47;;;8.89;100.00
75136;BME280;63707;52.212;9.540;2023-05-07T00:16:47;100409.84;;;8.87;100.00
75136;BME280;63707;52.212;9.540;2023-05-07T00:19:12;100405.25;;;8.88;100.00
75136;BME280;63707;52.212;9.540;2023-05-07T00:21:38;100406.00;;;8.81;100.00
75136;BME280;63707;52.212;9.540;2023-05-07T00:24:04;100400.75;;;8.80;100.00
75136;BME280;63707;52.212;9.540;2023-05-07T00:26:29;100398.69;;;8.82;100.00
75136;BME280;63707;52.212;9.540;2023-05-07T00:28:55;100401.88;;;8.86;100.00
75136;BME280;63707;52.212;9.540;2023-05-07T00:31:20;100402.16;;;8.91;100.00
75136;BME280;63707;52.212;9.540;2023-05-07T00:33:47;100404.59;;;8.86;100.00
75136;BME280;63707;52.212;9.540;2023-05-07T00:36:13;100397.75;;;8.75;100.00
75136;BME280;63707;52.212;9.540;2023-05-07T00:38:38;100400.56;;;8.67;100.00
75136;BME280;63707;52.212;9.540;2023-05-07T00:41:04;100396.88;;;8.60;100.00
75136;BME280;63707;52.212;9.540;2023-05-07T00:43:30;100401.75;;;8.64;100.00
75136;BME280;63707;52.212;9.540;2023-05-07T00:45:57;100400.19;;;8.70;100.00
75136;BME280;63707;52.212;9.540;2023-05-07T00:48:22;100408.69;;;8.52;100.00
75136;BME280;63707;52.212;9.540;2023-05-07T00:50:51;100408.31;;;8.70;100.00
75136;BME280;63707;52.212;9.540;2023-05-07T00:53:16;100408.13;;;8.57;100.00
75136;BME280;63707;52.212;9.540;2023-05-07T00:55:42;100411.41;;;8.67;100.00
75136;BME280;63707;52.212;9.540;2023-05-07T00:58:08;100408.69;;;8.67;100.00
75136;BME280;63707;52.212;9.540;2023-05-07T01:00:33;100400.47;;;8.75;100.00
75136;BME280;63707;52.212;9.540;2023-05-07T01:02:59;100399.97;;;8.57;100.00
75136;BME280;63707;52.212;9.540;2023-05-07T01:05:25;100404.19;;;8.59;100.00
75136;BME280;63707;52.212;9.540;2023-05-07T01:07:54;100397.81;;;8.52;100.00
75136;BME280;63707;52.212;9.540;2023-05-07T01:10:22;100402.41;;;8.51;100.00
75136;BME280;63707;52.212;9.540;2023-05-07T01:12:48;100405.97;;;8.52;100.00
75136;BME280;63707;52.212;9.540;2023-05-07T01:15:15;100405.59;;;8.55;100.00
75136;BME280;63707;52.212;9.540;2023-05-07T01:17:42;100411.13;;;8.62;100.00
75136;BME280;63707;52.212;9.540;2023-05-07T01:20:09;100416.81;;;8.52;100.00
75136;BME280;63707;52.212;9.540;2023-05-07T01:22:37;100411.88;;;8.56;100.00
75136;BME280;63707;52.212;9.540;2023-05-07T01:25:04;100411.03;;;8.55;100.00
75136;BME280;63707;52.212;9.540;2023-05-07T01:27:30;100414.63;;;8.47;100.00
75136;BME280;63707;52.212;9.540;2023-05-07T01:29:55;100412.84;;;8.40;100.00
75136;BME280;63707;52.212;9.540;2023-05-07T01:32:24;100416.88;;;8.44;100.00
75136;BME280;63707;52.212;9.540;2023-05-07T01:34:52;100410.88;;;8.48;100.00
75136;BME280;63707;52.212;9.540;2023-05-07T01:37:19;100409.47;;;8.38;100.00
75136;BME280;63707;52.212;9.540;2023-05-07T01:39:47;100412.06;;;8.54;100.00
75136;BME280;63707;52.212;9.540;2023-05-07T01:42:13;100407.03;;;8.43;100.00
75136;BME280;63707;52.212;9.540;2023-05-07T01:44:39;100406.75;;;8.38;100.00
75136;BME280;63707;52.212;9.540;2023-05-07T01:47:05;100399.94;;;8.42;100.00
75136;BME280;63707;52.212;9.540;2023-05-07T01:49:31;100394.38;;;8.35;100.00
75136;BME280;63707;52.212;9.540;2023-05-07T01:51:57;100400.06;;;8.26;100.00
75136;BME280;63707;52.212;9.540;2023-05-07T01:54:25;100406.88;;;8.21;100.00
75136;BME280;63707;52.212;9.540;2023-05-07T01:56:55;100407.97;;;8.35;100.00
75136;BME280;63707;52.212;9.540;2023-05-07T01:59:21;100417.13;;;8.34;100.00
75136;BME280;63707;52.212;9.540;2023-05-07T02:01:47;100414.94;;;8.30;100.00
75136;BME280;63707;52.212;9.540;2023-05-07T02:04:12;100406.63;;;8.31;100.00
75136;BME280;63707;52.212;9.540;2023-05-07T02:06:38;100409.59;;;8.21;100.00
75136;BME280;63707;52.212;9.540;2023-05-07T02:09:04;100407.16;;;8.27;100.00
75136;BME280;63707;52.212;9.540;2023-05-07T02:11:30;100411.28;;;8.23;100.00
75136;BME280;63707;52.212;9.540;2023-05-07T02:13:57;100416.53;;;8.24;100.00
75136;BME280;63707;52.212;9.540;2023-05-07T02:16:22;100414.16;;;8.21;100.00
75136;BME280;63707;52.212;9.540;2023-05-07T02:18:48;100414.34;;;8.19;100.00
75136;BME280;63707;52.212;9.540;2023-05-07T02:21:14;100422.88;;;8.16;100.00
75136;BME280;63707;52.212;9.540;2023-05-07T02:23:39;100428.59;;;8.21;100.00
75136;BME280;63707;52.212;9.540;2023-05-07T02:26:05;100432.69;;;8.17;100.00
75136;BME280;63707;52.212;9.540;2023-05-07T02:28:31;100433.28;;;8.28;100.00
75136;BME280;63707;52.212;9.540;2023-05-07T02:30:58;100433.34;;;8.19;100.00
75136;BME280;63707;52.212;9.540;2023-05-07T02:33:25;100432.34;;;8.20;100.00
75136;BME280;63707;52.212;9.540;2023-05-07T02:35:50;100439.94;;;8.25;100.00
75136;BME280;63707;52.212;9.540;2023-05-07T02:38:17;100433.47;;;8.26;100.00
75136;BME280;63707;52.212;9.540;2023-05-07T02:40:42;100429.91;;;8.26;100.00
75136;BME280;63707;52.212;9.540;2023-05-07T02:43:08;100431.31;;;8.21;100.00
75136;BME280;63707;52.212;9.540;2023-05-07T02:45:33;100430.88;;;8.10;100.00
75136;BME280;63707;52.212;9.540;2023-05-07T02:48:00;100425.56;;;8.16;100.00
75136;BME280;63707;52.212;9.540;2023-05-07T02:50:26;100422.03;;;8.16;100.00
75136;BME280;63707;52.212;9.540;2023-05-07T02:52:52;100428.59;;;8.21;100.00
75136;BME280;63707;52.212;9.540;2023-05-07T02:55:17;100424.28;;;8.27;100.00
75136;BME280;63707;52.212;9.540;2023-05-07T02:57:43;100425.13;;;8.28;100.00
75136;BME280;63707;52.212;9.540;2023-05-07T03:00:14;100431.13;;;8.23;100.00
75136;BME280;63707;52.212;9.540;2023-05-07T03:02:39;100433.25;;;8.13;100.00
75136;BME280;63707;52.212;9.540;2023-05-07T03:05:07;100429.97;;;8.17;100.00
75136;BME280;63707;52.212;9.540;2023-05-07T03:07:33;100431.47;;;8.20;100.00
75136;BME280;63707;52.212;9.540;2023-05-07T03:09:59;100420.16;;;8.16;100.00
75136;BME280;63707;52.212;9.540;2023-05-07T03:12:24;100418.56;;;8.22;100.00
75136;BME280;63707;52.212;9.540;2023-05-07T03:14:50;100424.72;;;8.16;100.00
75136;BME280;63707;52.212;9.540;2023-05-07T03:17:15;100412.19;;;8.15;100.00
75136;BME280;63707;52.212;9.540;2023-05-07T03:19:41;100406.22;;;8.19;100.00
75136;BME280;63707;52.212;9.540;2023-05-07T03:22:08;100420.50;;;8.13;100.00
75136;BME280;63707;52.212;9.540;2023-05-07T03:24:33;100419.59;;;8.21;100.00
75136;BME280;63707;52.212;9.540;2023-05-07T03:26:59;100419.13;;;8.17;100.00
75136;BME280;63707;52.212;9.540;2023-05-07T03:29:26;100414.47;;;8.26;100.00
75136;BME280;63707;52.212;9.540;2023-05-07T03:31:51;100413.63;;;8.26;100.00
75136;BME280;63707;52.212;9.540;2023-05-07T03:34:17;100419.72;;;8.28;100.00
75136;BME280;63707;52.212;9.540;2023-05-07T03:36:47;100407.41;;;8.17;100.00
75136;BME280;63707;52.212;9.540;2023-05-07T03:39:14;100401.63;;;8.20;100.00
75136;BME280;63707;52.212;9.540;2023-05-07T03:41:39;100404.16;;;8.21;100.00
75136;BME280;63707;52.212;9.540;2023-05-07T03:44:05;100400.78;;;8.19;100.00
75136;BME280;63707;52.212;9.540;2023-05-07T03:46:31;100411.09;;;8.24;100.00
75136;BME280;63707;52.212;9.540;2023-05-07T03:48:58;100412.66;;;8.18;100.00
75136;BME280;63707;52.212;9.540;2023-05-07T03:51:23;100413.50;;;8.19;100.00
75136;BME280;63707;52.212;9.540;2023-05-07T03:53:49;100406.09;;;8.13;100.00
75136;BME280;63707;52.212;9.540;2023-05-07T03:56:15;100411.47;;;8.21;100.00
75136;BME280;63707;52.212;9.540;2023-05-07T03:58:41;100417.44;;;8.16;100.00
75136;BME280;63707;52.212;9.540;2023-05-07T04:01:06;100419.06;;;8.26;100.00
75136;BME280;63707;52.212;9.540;2023-05-07T04:03:32;100417.25;;;8.18;100.00
75136;BME280;63707;52.212;9.540;2023-05-07T04:05:58;100425.94;;;8.13;100.00
75136;BME280;63707;52.212;9.540;2023-05-07T04:08:23;100427.75;;;8.21;100.00
75136;BME280;63707;52.212;9.540;2023-05-07T04:10:54;100428.78;;;8.20;100.00
75136;BME280;63707;52.212;9.540;2023-05-07T04:13:21;100431.31;;;8.21;100.00
75136;BME280;63707;52.212;9.540;2023-05-07T04:15:46;100428.59;;;8.21;100.00
75136;BME280;63707;52.212;9.540;2023-05-07T04:18:14;100432.81;;;8.24;100.00
75136;BME280;63707;52.212;9.540;2023-05-07T04:20:39;100437.09;;;8.18;100.00
75136;BME280;63707;52.212;9.540;2023-05-07T04:23:05;100435.88;;;8.21;100.00
75136;BME280;63707;52.212;9.540;2023-05-07T04:25:31;100435.78;;;8.14;100.00
75136;BME280;63707;52.212;9.540;2023-05-07T04:27:56;100434.38;;;8.18;100.00
75136;BME280;63707;52.212;9.540;2023-05-07T04:30:23;100435.22;;;8.19;100.00
75136;BME280;63707;52.212;9.540;2023-05-07T04:32:48;100432.16;;;8.22;100.00
75136;BME280;63707;52.212;9.540;2023-05-07T04:35:14;100428.41;;;8.23;100.00
75136;BME280;63707;52.212;9.540;2023-05-07T04:37:40;100437.03;;;8.27;100.00
75136;BME280;63707;52.212;9.540;2023-05-07T04:40:06;100438.06;;;8.26;100.00
75136;BME280;63707;52.212;9.540;2023-05-07T04:42:32;100437.69;;;8.29;100.00
75136;BME280;63707;52.212;9.540;2023-05-07T04:44:58;100436.47;;;8.31;100.00
75136;BME280;63707;52.212;9.540;2023-05-07T04:47:24;100442.03;;;8.15;100.00
75136;BME280;63707;52.212;9.540;2023-05-07T04:49:50;100448.44;;;8.22;100.00
75136;BME280;63707;52.212;9.540;2023-05-07T04:52:15;100453.69;;;8.24;100.00
75136;BME280;63707;52.212;9.540;2023-05-07T04:54:42;100459.03;;;8.32;100.00
75136;BME280;63707;52.212;9.540;2023-05-07T04:57:07;100463.63;;;8.31;100.00
75136;BME280;63707;52.212;9.540;2023-05-07T04:59:33;100461.09;;;8.30;100.00
75136;BME280;63707;52.212;9.540;2023-05-07T05:01:59;100467.06;;;8.25;100.00
75136;BME280;63707;52.212;9.540;2023-05-07T05:04:25;100466.22;;;8.25;100.00
75136;BME280;63707;52.212;9.540;2023-05-07T05:06:51;100458.16;;;8.16;100.00
75136;BME280;63707;52.212;9.540;2023-05-07T05:09:16;100461.28;;;8.28;100.00
75136;BME280;63707;52.212;9.540;2023-05-07T05:11:42;100473.81;;;8.29;100.00
75136;BME280;63707;52.212;9.540;2023-05-07T05:14:08;100465.81;;;8.13;100.00
75136;BME280;63707;52.212;9.540;2023-05-07T05:16:33;100460.97;;;8.23;100.00
75136;BME280;63707;52.212;9.540;2023-05-07T05:18:59;100466.22;;;8.25;100.00
75136;BME280;63707;52.212;9.540;2023-05-07T05:21:26;100473.88;;;8.21;100.00
75136;BME280;63707;52.212;9.540;2023-05-07T05:23:51;100471.41;;;8.11;100.00
75136;BME280;63707;52.212;9.540;2023-05-07T05:26:17;100468.94;;;8.25;100.00
75136;BME280;63707;52.212;9.540;2023-05-07T05:28:42;100486.06;;;8.25;100.00
75136;BME280;63707;52.212;9.540;2023-05-07T05:31:08;100486.97;;;8.17;100.00
75136;BME280;63707;52.212;9.540;2023-05-07T05:33:33;100482.81;;;8.30;100.00
75136;BME280;63707;52.212;9.540;2023-05-07T05:35:59;100485.00;;;8.34;100.00
75136;BME280;63707;52.212;9.540;2023-05-07T05:38:26;100485.16;;;8.33;100.00
75136;BME280;63707;52.212;9.540;2023-05-07T05:40:52;100486.88;;;8.34;100.00
75136;BME280;63707;52.212;9.540;2023-05-07T05:43:17;100483.81;;;8.60;100.00
75136;BME280;63707;52.212;9.540;2023-05-07T05:45:42;100483.50;;;8.55;100.00
75136;BME280;63707;52.212;9.540;2023-05-07T05:48:08;100486.22;;;8.55;100.00
75136;BME280;63707;52.212;9.540;2023-05-07T05:50:33;100490.69;;;8.47;100.00
75136;BME280;63707;52.212;9.540;2023-05-07T05:53:01;100488.09;;;8.54;100.00
75136;BME280;63707;52.212;9.540;2023-05-07T05:55:28;100477.41;;;8.52;100.00
75136;BME280;63707;52.212;9.540;2023-05-07T05:57:53;100481.09;;;8.37;100.00
75136;BME280;63707;52.212;9.540;2023-05-07T06:00:19;100480.63;;;8.56;100.00
75136;BME280;63707;52.212;9.540;2023-05-07T06:02:47;100478.31;;;8.45;100.00
75136;BME280;63707;52.212;9.540;2023-05-07T06:05:13;100480.06;;;8.61;100.00
75136;BME280;63707;52.212;9.540;2023-05-07T06:07:38;100473.59;;;8.62;100.00
75136;BME280;63707;52.212;9.540;2023-05-07T06:10:05;100476.41;;;8.54;100.00
75136;BME280;63707;52.212;9.540;2023-05-07T06:12:32;100481.09;;;8.60;100.00
75136;BME280;63707;52.212;9.540;2023-05-07T06:14:57;100477.72;;;8.58;100.00
75136;BME280;63707;52.212;9.540;2023-05-07T06:17:23;100476.97;;;8.64;100.00
75136;BME280;63707;52.212;9.540;2023-05-07T06:19:48;100475.78;;;8.81;100.00
75136;BME280;63707;52.212;9.540;2023-05-07T06:22:14;100483.56;;;8.84;100.00
75136;BME280;63707;52.212;9.540;2023-05-07T06:24:39;100490.13;;;8.75;100.00
75136;BME280;63707;52.212;9.540;2023-05-07T06:27:05;100491.69;;;8.69;100.00
75136;BME280;63707;52.212;9.540;2023-05-07T06:29:32;100489.53;;;8.65;100.00
75136;BME280;63707;52.212;9.540;2023-05-07T06:32:06;100487.31;;;8.83;100.00
75136;BME280;63707;52.212;9.540;2023-05-07T06:34:32;100485.72;;;8.74;100.00
75136;BME280;63707;52.212;9.540;2023-05-07T06:36:57;100485.34;;;8.77;100.00
75136;BME280;63707;52.212;9.540;2023-05-07T06:39:23;100497.03;;;8.63;100.00
75136;BME280;63707;52.212;9.540;2023-05-07T06:41:48;100498.22;;;8.60;100.00
75136;BME280;63707;52.212;9.540;2023-05-07T06:44:14;100493.28;;;8.41;100.00
75136;BME280;63707;52.212;9.540;2023-05-07T06:46:41;100499.91;;;8.61;100.00
75136;BME280;63707;52.212;9.540;2023-05-07T06:49:07;100503.41;;;8.70;100.00
75136;BME280;63707;52.212;9.540;2023-05-07T06:51:32;100498.78;;;8.56;100.00
75136;BME280;63707;52.212;9.540;2023-05-07T06:53:58;100493.63;;;8.61;100.00
75136;BME280;63707;52.212;9.540;2023-05-07T06:56:23;100502.75;;;8.68;100.00
75136;BME280;63707;52.212;9.540;2023-05-07T06:58:49;100502.38;;;8.71;100.00
75136;BME280;63707;52.212;9.540;2023-05-07T07:01:15;100510.75;;;8.84;100.00
75136;BME280;63707;52.212;9.540;2023-05-07T07:03:42;100514.97;;;8.87;100.00
75136;BME280;63707;52.212;9.540;2023-05-07T07:06:07;100512.22;;;8.72;100.00
75136;BME280;63707;52.212;9.540;2023-05-07T07:08:33;100516.53;;;8.81;100.00
75136;BME280;63707;52.212;9.540;2023-05-07T07:10:59;100515.97;;;8.71;100.00
75136;BME280;63707;52.212;9.540;2023-05-07T07:13:25;100515.34;;;8.83;100.00
75136;BME280;63707;52.212;9.540;2023-05-07T07:15:51;100511.09;;;8.81;100.00
75136;BME280;63707;52.212;9.540;2023-05-07T07:18:16;100509.03;;;8.68;100.00
75136;BME280;63707;52.212;9.540;2023-05-07T07:20:43;100522.75;;;8.90;100.00
75136;BME280;63707;52.212;9.540;2023-05-07T07:23:09;100521.94;;;9.04;100.00
75136;BME280;63707;52.212;9.540;2023-05-07T07:25:35;100527.88;;;8.84;100.00
75136;BME280;63707;52.212;9.540;2023-05-07T07:28:00;100527.03;;;8.84;100.00
75136;BME280;63707;52.212;9.540;2023-05-07T07:30:26;100535.97;;;8.93;100.00
75136;BME280;63707;52.212;9.540;2023-05-07T07:32:51;100537.53;;;8.87;100.00
75136;BME280;63707;52.212;9.540;2023-05-07T07:35:17;100527.81;;;8.93;100.00
75136;BME280;63707;52.212;9.540;2023-05-07T07:37:44;100530.09;;;9.04;100.00
75136;BME280;63707;52.212;9.540;2023-05-07T07:40:11;100529.09;;;8.82;100.00
75136;BME280;63707;52.212;9.540;2023-05-07T07:42:37;100534.09;;;8.93;100.00
75136;BME280;63707;52.212;9.540;2023-05-07T07:45:03;100536.63;;;8.95;100.00
75136;BME280;63707;52.212;9.540;2023-05-07T07:47:29;100530.81;;;8.98;100.00
75136;BME280;63707;52.212;9.540;2023-05-07T07:49:55;100531.91;;;9.11;100.00
75136;BME280;63707;52.212;9.540;2023-05-07T07:52:20;100527.50;;;9.10;100.00
75136;BME280;63707;52.212;9.540;2023-05-07T07:54:47;100524.19;;;9.00;100.00
75136;BME280;63707;52.212;9.540;2023-05-07T07:57:13;100520.19;;;9.11;100.00
75136;BME280;63707;52.212;9.540;2023-05-07T07:59:38;100529.75;;;9.22;100.00
75136;BME280;63707;52.212;9.540;2023-05-07T08:02:05;100532.28;;;9.23;100.00
75136;BME280;63707;52.212;9.540;2023-05-07T08:04:31;100535.94;;;9.45;100.00
75136;BME280;63707;52.212;9.540;2023-05-07T08:06:58;100542.78;;;9.41;100.00
75136;BME280;63707;52.212;9.540;2023-05-07T08:09:23;100536.69;;;9.39;100.00
75136;BME280;63707;52.212;9.540;2023-05-07T08:11:50;100535.38;;;9.20;100.00
75136;BME280;63707;52.212;9.540;2023-05-07T08:14:16;100541.66;;;9.35;100.00
75136;BME280;63707;52.212;9.540;2023-05-07T08:16:41;100538.19;;;9.41;100.00
75136;BME280;63707;52.212;9.540;2023-05-07T08:19:07;100540.38;;;9.46;100.00
75136;BME280;63707;52.212;9.540;2023-05-07T08:21:32;100547.13;;;9.50;100.00
75136;BME280;63707;52.212;9.540;2023-05-07T08:23:58;100546.56;;;9.55;100.00
75136;BME280;63707;52.212;9.540;2023-05-07T08:26:23;100546.81;;;9.45;100.00
75136;BME280;63707;52.212;9.540;2023-05-07T08:28:50;100550.69;;;9.51;100.00
75136;BME280;63707;52.212;9.540;2023-05-07T08:31:16;100548.72;;;9.59;100.00
75136;BME280;63707;52.212;9.540;2023-05-07T08:33:41;100553.13;;;9.60;100.00
75136;BME280;63707;52.212;9.540;2023-05-07T08:36:07;100542.53;;;9.65;100.00
75136;BME280;63707;52.212;9.540;2023-05-07T08:38:32;100549.25;;;9.40;100.00
75136;BME280;63707;52.212;9.540;2023-05-07T08:40:58;100549.34;;;9.76;100.00
75136;BME280;63707;52.212;9.540;2023-05-07T08:43:26;100560.72;;;9.65;100.00
75136;BME280;63707;52.212;9.540;2023-05-07T08:45:54;100560.78;;;9.86;100.00
75136;BME280;63707;52.212;9.540;2023-05-07T08:48:22;100549.44;;;9.83;100.00
75136;BME280;63707;52.212;9.540;2023-05-07T08:50:50;100548.97;;;9.94;100.00
75136;BME280;63707;52.212;9.540;2023-05-07T08:53:16;100547.75;;;9.96;100.00
75136;BME280;63707;52.212;9.540;2023-05-07T08:55:43;100559.09;;;9.85;100.00
75136;BME280;63707;52.212;9.540;2023-05-07T08:58:08;100553.28;;;10.03;100.00
75136;BME280;63707;52.212;9.540;2023-05-07T09:00:34;100551.03;;;10.06;100.00
75136;BME280;63707;52.212;9.540;2023-05-07T09:03:02;100548.75;;;10.10;100.00
75136;BME280;63707;52.212;9.540;2023-05-07T09:05:28;100544.38;;;9.94;100.00
75136;BME280;63707;52.212;9.540;2023-05-07T09:07:54;100552.63;;;10.01;100.00
75136;BME280;63707;52.212;9.540;2023-05-07T09:10:21;100543.22;;;10.03;100.00
75136;BME280;63707;52.212;9.540;2023-05-07T09:12:46;100554.47;;;10.15;100.00
75136;BME280;63707;52.212;9.540;2023-05-07T09:15:12;100552.41;;;10.17;100.00
75136;BME280;63707;52.212;9.540;2023-05-07T09:17:38;100548.00;;;10.16;100.00
75136;BME280;63707;52.212;9.540;2023-05-07T09:20:06;100547.91;;;10.09;100.00
75136;BME280;63707;52.212;9.540;2023-05-07T09:22:32;100553.94;;;10.05;100.00
75136;BME280;63707;52.212;9.540;2023-05-07T09:24:57;100558.09;;;9.71;100.00
75136;BME280;63707;52.212;9.540;2023-05-07T09:27:23;100557.63;;;9.97;100.00
75136;BME280;63707;52.212;9.540;2023-05-07T09:29:48;100561.38;;;9.96;100.00
75136;BME280;63707;52.212;9.540;2023-05-07T09:32:14;100555.78;;;10.19;100.00
75136;BME280;63707;52.212;9.540;2023-05-07T09:34:41;100558.03;;;10.16;100.00
75136;BME280;63707;52.212;9.540;2023-05-07T09:37:08;100562.16;;;10.26;100.00
75136;BME280;63707;52.212;9.540;2023-05-07T09:39:40;100556.22;;;10.37;100.00
75136;BME280;63707;52.212;9.540;2023-05-07T09:42:06;100561.50;;;10.60;100.00
75136;BME280;63707;52.212;9.540;2023-05-07T09:44:31;100562.22;;;10.69;100.00
75136;BME280;63707;52.212;9.540;2023-05-07T09:47:00;100561.13;;;10.63;100.00
75136;BME280;63707;52.212;9.540;2023-05-07T09:49:29;100567.22;;;10.29;100.00
75136;BME280;63707;52.212;9.540;2023-05-07T09:51:59;100556.63;;;10.56;100.00
75136;BME280;63707;52.212;9.540;2023-05-07T09:54:27;100554.75;;;10.56;100.00
75136;BME280;63707;52.212;9.540;2023-05-07T09:56:56;100558.91;;;10.52;100.00
75136;BME280;63707;52.212;9.540;2023-05-07T09:59:22;100563.78;;;10.57;100.00
75136;BME280;63707;52.212;9.540;2023-05-07T10:01:48;100562.34;;;10.61;100.00
75136;BME280;63707;52.212;9.540;2023-05-07T10:04:15;100567.28;;;10.72;100.00
75136;BME280;63707;52.212;9.540;2023-05-07T10:06:40;100562.69;;;10.94;100.00
75136;BME280;63707;52.212;9.540;2023-05-07T10:09:07;100559.69;;;11.38;100.00
75136;BME280;63707;52.212;9.540;2023-05-07T10:11:34;100558.31;;;11.27;100.00
75136;BME280;63707;52.212;9.540;2023-05-07T10:14:00;100563.06;;;11.19;100.00
75136;BME280;63707;52.212;9.540;2023-05-07T10:16:32;100557.31;;;11.35;100.00
75136;BME280;63707;52.212;9.540;2023-05-07T10:19:02;100552.63;;;11.50;100.00
75136;BME280;63707;52.212;9.540;2023-05-07T10:21:29;100549.78;;;11.72;100.00
75136;BME280;63707;52.212;9.540;2023-05-07T10:23:58;100558.50;;;11.54;100.00
75136;BME280;63707;52.212;9.540;2023-05-07T10:26:27;100552.47;;;11.02;100.00
75136;BME280;63707;52.212;9.540;2023-05-07T10:28:59;100552.22;;;11.53;100.00
75136;BME280;63707;52.212;9.540;2023-05-07T10:31:41;100556.72;;;12.02;100.00
75136;BME280;63707;52.212;9.540;2023-05-07T10:34:17;100550.56;;;12.48;100.00
75136;BME280;63707;52.212;9.540;2023-05-07T10:36:46;100559.81;;;11.30;100.00
75136;BME280;63707;52.212;9.540;2023-05-07T10:39:12;100557.16;;;12.12;100.00
75136;BME280;63707;52.212;9.540;2023-05-07T10:41:39;100564.50;;;12.12;100.00
75136;BME280;63707;52.212;9.540;2023-05-07T10:44:06;100566.41;;;12.11;100.00
75136;BME280;63707;52.212;9.540;2023-05-07T10:46:31;100556.97;;;12.20;100.00
75136;BME280;63707;52.212;9.540;2023-05-07T10:49:07;100570.22;;;12.23;100.00
75136;BME280;63707;52.212;9.540;2023-05-07T10:51:34;100566.41;;;12.11;100.00
75136;BME280;63707;52.212;9.540;2023-05-07T10:54:18;100561.41;;;12.28;100.00
75136;BME280;63707;52.212;9.540;2023-05-07T10:56:44;100566.31;;;12.39;100.00
75136;BME280;63707;52.212;9.540;2023-05-07T10:59:31;100560.25;;;11.96;100.00
75136;BME280;63707;52.212;9.540;2023-05-07T11:01:58;100568.28;;;12.11;100.00
75136;BME280;63707;52.212;9.540;2023-05-07T11:04:25;100565.19;;;12.27;100.00
75136;BME280;63707;52.212;9.540;2023-05-07T11:07:30;100577.66;;;12.43;100.00
75136;BME280;63707;52.212;9.540;2023-05-07T11:10:01;100567.38;;;12.51;100.00
75136;BME280;63707;52.212;9.540;2023-05-07T11:12:51;100569.59;;;12.21;100.00
75136;BME280;63707;52.212;9.540;2023-05-07T11:15:41;100569.59;;;12.21;100.00
75136;BME280;63707;52.212;9.540;2023-05-07T11:18:08;100576.13;;;12.27;100.00
75136;BME280;63707;52.212;9.540;2023-05-07T11:20:49;100574.22;;;12.21;100.00
75136;BME280;63707;52.212;9.540;2023-05-07T11:26:16;100569.94;;;12.66;100.00
75136;BME280;63707;52.212;9.540;2023-05-07T11:28:44;100572.72;;;12.79;100.00
75136;BME280;63707;52.212;9.540;2023-05-07T11:31:11;100571.81;;;12.52;100.00
75136;BME280;63707;52.212;9.540;2023-05-07T11:33:37;100567.88;;;13.14;100.00
75136;BME280;63707;52.212;9.540;2023-05-07T11:36:04;100567.72;;;13.36;100.00
75136;BME280;63707;52.212;9.540;2023-05-07T11:38:30;100576.31;;;13.13;100.00
75136;BME280;63707;52.212;9.540;2023-05-07T11:40:59;100574.28;;;12.34;100.00
75136;BME280;63707;52.212;9.540;2023-05-07T11:43:26;100577.34;;;12.79;100.00
75136;BME280;63707;52.212;9.540;2023-05-07T11:45:52;100574.84;;;13.50;100.00
75136;BME280;63707;52.212;9.540;2023-05-07T11:48:21;100566.44;;;13.38;100.00
75136;BME280;63707;52.212;9.540;2023-05-07T11:50:50;100576.31;;;13.06;100.00
75136;BME280;63707;52.212;9.540;2023-05-07T11:53:17;100567.66;;;12.83;100.00
75136;BME280;63707;52.212;9.540;2023-05-07T11:55:44;100566.44;;;13.45;100.00
75136;BME280;63707;52.212;9.540;2023-05-07T11:58:11;100567.25;;;12.99;100.00
75136;BME280;63707;52.212;9.540;2023-05-07T12:00:37;100562.00;;;13.04;100.00
75136;BME280;63707;52.212;9.540;2023-05-07T12:03:03;100566.75;;;12.56;100.00
75136;BME280;63707;52.212;9.540;2023-05-07T12:05:31;100575.88;;;13.03;100.00
75136;BME280;63707;52.212;9.540;2023-05-07T12:07:56;100577.69;;;12.49;100.00
75136;BME280;63707;52.212;9.540;2023-05-07T12:10:22;100581.31;;;12.76;100.00
75136;BME280;63707;52.212;9.540;2023-05-07T12:12:47;100573.56;;;12.93;100.00
75136;BME280;63707;52.212;9.540;2023-05-07T12:15:15;100580.09;;;13.12;100.00
75136;BME280;63707;52.212;9.540;2023-05-07T12:17:41;100580.47;;;12.69;100.00
75136;BME280;63707;52.212;9.540;2023-05-07T12:20:08;100583.88;;;12.98;100.00
75136;BME280;63707;52.212;9.540;2023-05-07T12:22:35;100575.25;;;12.94;100.00
75136;BME280;63707;52.212;9.540;2023-05-07T12:25:00;100580.13;;;13.38;100.00
75136;BME280;63707;52.212;9.540;2023-05-07T12:27:27;100578.00;;;13.01;100.00
75136;BME280;63707;52.212;9.540;2023-05-07T12:29:53;100572.78;;;13.26;100.00
75136;BME280;63707;52.212;9.540;2023-05-07T12:32:20;100578.00;;;13.01;100.00
75136;BME280;63707;52.212;9.540;2023-05-07T12:34:49;100568.16;;;13.26;100.00
75136;BME280;63707;52.212;9.540;2023-05-07T12:37:14;100564.09;;;12.82;100.00
75136;BME280;63707;52.212;9.540;2023-05-07T12:39:47;100560.56;;;13.35;100.00
75136;BME280;63707;52.212;9.540;2023-05-07T12:42:15;100563.50;;;13.40;100.00
75136;BME280;63707;52.212;9.540;2023-05-07T12:44:45;100561.31;;;13.68;100.00
75136;BME280;63707;52.212;9.540;2023-05-07T12:47:11;100552.50;;;13.73;100.00
75136;BME280;63707;52.212;9.540;2023-05-07T12:49:37;100551.06;;;13.50;100.00